sensor_id;sensor_type;location;lat;lon;timestamp;pressure;altitude;pressure_sealevel;temperature;humidity
36190;BME280;22232;50.914;13.858;2023-09-30T00:01:11;98209.97;;;19.60;100.00
36190;BME280;22232;50.914;13.858;2023-09-30T00:03:39;98208.88;;;19.56;100.00
36190;BME280;22232;50.914;13.858;2023-09-30T00:06:07;98215.09;;;19.57;100.00
36190;BME280;22232;50.914;13.858;2023-09-30T00:08:34;98215.16;;;19.46;100.00
36190;BME280;22232;50.914;13.858;2023-09-30T00:11:02;98218.97;;;19.45;100.00
36190;BME280;22232;50.914;13.858;2023-09-30T00:13:31;98230.59;;;19.46;100.00
36190;BME280;22232;50.914;13.858;2023-09-30T00:15:59;98236.81;;;19.41;100.00
36190;BME280;22232;50.914;13.858;2023-09-30T00:18:27;98244.94;;;19.46;100.00
36190;BME280;22232;50.914;13.858;2023-09-30T00:20:55;98231.47;;;19.31;100.00
36190;BME280;22232;50.914;13.858;2023-09-30T00:23:22;98242.34;;;19.21;100.00
36190;BME280;22232;50.914;13.858;2023-09-30T00:25:51;98244.25;;;19.20;100.00
36190;BME280;22232;50.914;13.858;2023-09-30T00:28:18;98239.63;;;19.16;100.00
36190;BME280;22232;50.914;13.858;2023-09-30T00:30:46;98241.59;;;19.05;100.00
36190;BME280;22232;50.914;13.858;2023-09-30T00:33:15;98237.00;;;18.95;100.00
36190;BME280;22232;50.914;13.858;2023-09-30T00:35:43;98250.50;;;19.00;100.00
36190;BME280;22232;50.914;13.858;2023-09-30T00:38:10;98257.81;;;19.00;100.00
36190;BME280;22232;50.914;13.858;2023-09-30T00:40:38;98264.56;;;18.97;100.00
36190;BME280;22232;50.914;13.858;2023-09-30T00:43:05;98257.81;;;18.95;100.00
36190;BME280;22232;50.914;13.858;2023-09-30T00:45:33;98260.50;;;18.95;100.00
36190;BME280;22232;50.914;13.858;2023-09-30T00:48:02;98256.47;;;18.92;100.00
36190;BME280;22232;50.914;13.858;2023-09-30T00:50:31;98258.91;;;18.94;100.00
36190;BME280;22232;50.914;13.858;2023-09-30T00:52:59;98261.91;;;18.87;100.00
36190;BME280;22232;50.914;13.858;2023-09-30T00:55:26;98261.09;;;18.82;100.00
36190;BME280;22232;50.914;13.858;2023-09-30T00:57:55;98268.09;;;18.77;100.00
36190;BME280;22232;50.914;13.858;2023-09-30T01:00:23;98262.69;;;18.77;100.00
36190;BME280;22232;50.914;13.858;2023-09-30T01:02:52;98272.19;;;18.75;100.00
36190;BME280;22232;50.914;13.858;2023-09-30T01:05:20;98268.34;;;18.71;100.00
36190;BME280;22232;50.914;13.858;2023-09-30T01:07:48;98264.31;;;18.58;100.00
36190;BME280;22232;50.914;13.858;2023-09-30T01:10:16;98262.44;;;18.43;100.00
36190;BME280;22232;50.914;13.858;2023-09-30T01:12:43;98269.75;;;18.48;100.00
36190;BME280;22232;50.914;13.858;2023-09-30T01:15:11;98261.91;;;18.41;100.00
36190;BME280;22232;50.914;13.858;2023-09-30T01:17:38;98272.97;;;18.34;100.00
36190;BME280;22232;50.914;13.858;2023-09-30T01:20:06;98268.34;;;18.20;100.00
36190;BME280;22232;50.914;13.858;2023-09-30T01:22:36;98268.38;;;18.15;100.00
36190;BME280;22232;50.914;13.858;2023-09-30T01:25:04;98276.47;;;18.15;100.00
36190;BME280;22232;50.914;13.858;2023-09-30T01:27:32;98274.00;;;17.98;100.00
36190;BME280;22232;50.914;13.858;2023-09-30T01:30:00;98283.97;;;17.92;100.00
36190;BME280;22232;50.914;13.858;2023-09-30T01:32:27;98283.16;;;17.81;100.00
36190;BME280;22232;50.914;13.858;2023-09-30T01:34:55;98291.47;;;17.75;100.00
36190;BME280;22232;50.914;13.858;2023-09-30T01:37:27;98297.09;;;17.63;100.00
36190;BME280;22232;50.914;13.858;2023-09-30T01:39:56;98304.31;;;17.47;100.00
36190;BME280;22232;50.914;13.858;2023-09-30T01:42:24;98305.09;;;17.42;100.00
36190;BME280;22232;50.914;13.858;2023-09-30T01:44:52;98313.38;;;17.31;100.00
36190;BME280;22232;50.914;13.858;2023-09-30T01:47:19;98311.50;;;17.31;100.00
36190;BME280;22232;50.914;13.858;2023-09-30T01:49:47;98311.94;;;17.08;100.00
36190;BME280;22232;50.914;13.858;2023-09-30T01:52:15;98321.56;;;16.99;100.00
36190;BME280;22232;50.914;13.858;2023-09-30T01:54:43;98315.97;;;16.73;100.00
36190;BME280;22232;50.914;13.858;2023-09-30T01:57:10;98323.97;;;16.63;100.00
36190;BME280;22232;50.914;13.858;2023-09-30T01:59:39;98329.28;;;16.52;100.00
36190;BME280;22232;50.914;13.858;2023-09-30T02:02:06;98328.31;;;16.37;100.00
36190;BME280;22232;50.914;13.858;2023-09-30T02:04:34;98338.72;;;16.28;100.00
36190;BME280;22232;50.914;13.858;2023-09-30T02:07:02;98339.22;;;16.25;100.00
36190;BME280;22232;50.914;13.858;2023-09-30T02:09:29;98347.31;;;16.25;100.00
36190;BME280;22232;50.914;13.858;2023-09-30T02:11:59;98352.88;;;16.13;100.00
36190;BME280;22232;50.914;13.858;2023-09-30T02:14:27;98348.16;;;16.03;100.00
36190;BME280;22232;50.914;13.858;2023-09-30T02:16:54;98353.13;;;15.90;100.00
36190;BME280;22232;50.914;13.858;2023-09-30T02:19:22;98353.69;;;15.70;100.00
36190;BME280;22232;50.914;13.858;2023-09-30T02:21:49;98358.25;;;15.69;100.00
36190;BME280;22232;50.914;13.858;2023-09-30T02:24:18;98369.09;;;15.74;100.00
36190;BME280;22232;50.914;13.858;2023-09-30T02:26:46;98367.00;;;15.59;100.00
36190;BME280;22232;50.914;13.858;2023-09-30T02:29:13;98370.41;;;15.55;100.00
36190;BME280;22232;50.914;13.858;2023-09-30T02:31:41;98377.94;;;15.53;100.00
36190;BME280;22232;50.914;13.858;2023-09-30T02:34:08;98366.97;;;15.37;100.00
36190;BME280;22232;50.914;13.858;2023-09-30T02:36:36;98381.91;;;15.28;100.00
36190;BME280;22232;50.914;13.858;2023-09-30T02:39:06;98386.59;;;15.21;100.00
36190;BME280;22232;50.914;13.858;2023-09-30T02:41:36;98376.34;;;15.18;100.00
36190;BME280;22232;50.914;13.858;2023-09-30T02:44:05;98388.09;;;15.12;100.00
36190;BME280;22232;50.914;13.858;2023-09-30T02:46:33;98390.13;;;15.05;100.00
36190;BME280;22232;50.914;13.858;2023-09-30T02:49:01;98402.28;;;15.07;100.00
36190;BME280;22232;50.914;13.858;2023-09-30T02:51:30;98402.66;;;14.99;100.00
36190;BME280;22232;50.914;13.858;2023-09-30T02:53:59;98410.50;;;15.01;100.00
36190;BME280;22232;50.914;13.858;2023-09-30T02:56:27;98425.44;;;14.97;100.00
36190;BME280;22232;50.914;13.858;2023-09-30T02:58:58;98426.53;;;14.96;100.00
36190;BME280;22232;50.914;13.858;2023-09-30T03:01:26;98425.41;;;14.91;100.00
36190;BME280;22232;50.914;13.858;2023-09-30T03:03:54;98421.16;;;14.96;100.00
36190;BME280;22232;50.914;13.858;2023-09-30T03:06:23;98434.69;;;15.01;100.00
36190;BME280;22232;50.914;13.858;2023-09-30T03:08:50;98429.53;;;14.99;100.00
36190;BME280;22232;50.914;13.858;2023-09-30T03:11:19;98436.69;;;14.94;100.00
36190;BME280;22232;50.914;13.858;2023-09-30T03:13:50;98431.31;;;14.94;100.00
36190;BME280;22232;50.914;13.858;2023-09-30T03:16:18;98442.22;;;14.87;100.00
36190;BME280;22232;50.914;13.858;2023-09-30T03:18:47;98447.84;;;14.85;100.00
36190;BME280;22232;50.914;13.858;2023-09-30T03:21:16;98448.19;;;14.60;100.00
36190;BME280;22232;50.914;13.858;2023-09-30T03:23:44;98455.84;;;14.52;100.00
36190;BME280;22232;50.914;13.858;2023-09-30T03:26:12;98450.97;;;14.37;100.00
36190;BME280;22232;50.914;13.858;2023-09-30T03:28:40;98470.19;;;14.45;100.00
36190;BME280;22232;50.914;13.858;2023-09-30T03:31:08;98463.03;;;14.22;100.00
36190;BME280;22232;50.914;13.858;2023-09-30T03:33:37;98468.97;;;14.25;100.00
36190;BME280;22232;50.914;13.858;2023-09-30T03:36:08;98465.50;;;14.12;100.00
36190;BME280;22232;50.914;13.858;2023-09-30T03:38:36;98476.13;;;14.07;100.00
36190;BME280;22232;50.914;13.858;2023-09-30T03:41:04;98478.47;;;14.04;100.00
36190;BME280;22232;50.914;13.858;2023-09-30T03:43:35;98488.38;;;14.03;100.00
36190;BME280;22232;50.914;13.858;2023-09-30T03:46:08;98497.25;;;14.04;100.00
36190;BME280;22232;50.914;13.858;2023-09-30T03:48:36;98505.38;;;14.09;100.00
36190;BME280;22232;50.914;13.858;2023-09-30T03:51:10;98509.25;;;14.13;100.00
36190;BME280;22232;50.914;13.858;2023-09-30T03:53:42;98521.59;;;14.14;100.00
36190;BME280;22232;50.914;13.858;2023-09-30T03:56:10;98524.06;;;14.04;100.00
36190;BME280;22232;50.914;13.858;2023-09-30T03:58:41;98525.69;;;14.05;100.00
36190;BME280;22232;50.914;13.858;2023-09-30T04:01:09;98526.84;;;14.09;100.00
36190;BME280;22232;50.914;13.858;2023-09-30T04:03:44;98527.31;;;14.06;100.00
36190;BME280;22232;50.914;13.858;2023-09-30T04:06:12;98535.81;;;14.03;100.00
36190;BME280;22232;50.914;13.858;2023-09-30T04:08:39;98548.81;;;13.94;100.00
36190;BME280;22232;50.914;13.858;2023-09-30T04:11:07;98546.47;;;13.97;100.00
36190;BME280;22232;50.914;13.858;2023-09-30T04:13:35;98557.53;;;14.01;100.00
36190;BME280;22232;50.914;13.858;2023-09-30T04:16:03;98555.19;;;13.93;100.00
36190;BME280;22232;50.914;13.858;2023-09-30T04:18:30;98555.44;;;13.80;100.00
36190;BME280;22232;50.914;13.858;2023-09-30T04:20:58;98558.59;;;13.76;100.00
36190;BME280;22232;50.914;13.858;2023-09-30T04:23:26;98565.22;;;13.74;100.00
36190;BME280;22232;50.914;13.858;2023-09-30T04:25:54;98575.59;;;13.70;100.00
36190;BME280;22232;50.914;13.858;2023-09-30T04:28:22;98580.38;;;13.68;100.00
36190;BME280;22232;50.914;13.858;2023-09-30T04:30:51;98575.25;;;13.67;100.00
36190;BME280;22232;50.914;13.858;2023-09-30T04:33:19;98571.97;;;13.65;100.00
36190;BME280;22232;50.914;13.858;2023-09-30T04:35:47;98568.34;;;13.59;100.00
36190;BME280;22232;50.914;13.858;2023-09-30T04:38:15;98569.16;;;13.60;100.00
36190;BME280;22232;50.914;13.858;2023-09-30T04:40:43;98564.28;;;13.57;100.00
36190;BME280;22232;50.914;13.858;2023-09-30T04:43:11;98560.56;;;13.58;100.00
36190;BME280;22232;50.914;13.858;2023-09-30T04:45:41;98559.63;;;13.52;100.00
36190;BME280;22232;50.914;13.858;2023-09-30T04:48:09;98559.03;;;13.50;100.00
36190;BME280;22232;50.914;13.858;2023-09-30T04:50:39;98560.88;;;13.49;100.00
36190;BME280;22232;50.914;13.858;2023-09-30T04:53:06;98550.63;;;13.46;100.00
36190;BME280;22232;50.914;13.858;2023-09-30T04:55:35;98548.06;;;13.40;100.00
36190;BME280;22232;50.914;13.858;2023-09-30T04:58:04;98551.88;;;13.32;100.00
36190;BME280;22232;50.914;13.858;2023-09-30T05:00:32;98559.03;;;13.20;100.00
36190;BME280;22232;50.914;13.858;2023-09-30T05:03:02;98564.06;;;13.16;100.00
36190;BME280;22232;50.914;13.858;2023-09-30T05:05:30;98563.69;;;13.13;100.00
36190;BME280;22232;50.914;13.858;2023-09-30T05:07:58;98564.59;;;13.06;100.00
36190;BME280;22232;50.914;13.858;2023-09-30T05:10:25;98572.03;;;13.04;100.00
36190;BME280;22232;50.914;13.858;2023-09-30T05:12:55;98575.06;;;13.08;100.00
36190;BME280;22232;50.914;13.858;2023-09-30T05:15:23;98582.75;;;13.04;100.00
36190;BME280;22232;50.914;13.858;2023-09-30T05:17:51;98581.03;;;13.10;100.00
36190;BME280;22232;50.914;13.858;2023-09-30T05:20:18;98583.09;;;13.08;100.00
36190;BME280;22232;50.914;13.858;2023-09-30T05:22:47;98590.47;;;13.13;100.00
36190;BME280;22232;50.914;13.858;2023-09-30T05:25:16;98595.47;;;13.09;100.00
36190;BME280;22232;50.914;13.858;2023-09-30T05:27:46;98592.69;;;13.16;100.00
36190;BME280;22232;50.914;13.858;2023-09-30T05:30:16;98591.06;;;13.15;100.00
36190;BME280;22232;50.914;13.858;2023-09-30T05:32:44;98591.38;;;13.25;100.00
36190;BME280;22232;50.914;13.858;2023-09-30T05:35:14;98591.13;;;13.26;100.00
36190;BME280;22232;50.914;13.858;2023-09-30T05:37:45;98598.97;;;13.40;100.00
36190;BME280;22232;50.914;13.858;2023-09-30T05:40:13;98604.81;;;13.48;100.00
36190;BME280;22232;50.914;13.858;2023-09-30T05:42:54;98603.19;;;13.59;100.00
36190;BME280;22232;50.914;13.858;2023-09-30T05:45:27;98600.69;;;13.76;100.00
36190;BME280;22232;50.914;13.858;2023-09-30T05:47:55;98601.13;;;13.96;100.00
36190;BME280;22232;50.914;13.858;2023-09-30T05:50:25;98606.16;;;14.28;100.00
36190;BME280;22232;50.914;13.858;2023-09-30T05:56:42;98607.78;;;14.17;100.00
36190;BME280;22232;50.914;13.858;2023-09-30T05:59:10;98606.63;;;14.13;100.00
36190;BME280;22232;50.914;13.858;2023-09-30T06:01:39;98601.94;;;14.09;100.00
36190;BME280;22232;50.914;13.858;2023-09-30T06:04:07;98614.69;;;14.13;100.00
36190;BME280;22232;50.914;13.858;2023-09-30T06:06:34;98615.28;;;14.15;100.00
36190;BME280;22232;50.914;13.858;2023-09-30T06:09:02;98613.03;;;14.24;100.00
36190;BME280;22232;50.914;13.858;2023-09-30T06:11:30;98611.28;;;14.30;100.00
36190;BME280;22232;50.914;13.858;2023-09-30T06:13:57;98621.06;;;14.48;100.00
36190;BME280;22232;50.914;13.858;2023-09-30T06:16:28;98631.69;;;14.54;100.00
36190;BME280;22232;50.914;13.858;2023-09-30T06:18:59;98630.88;;;14.54;100.00
36190;BME280;22232;50.914;13.858;2023-09-30T06:21:26;98637.63;;;14.68;100.00
36190;BME280;22232;50.914;13.858;2023-09-30T06:23:56;98637.47;;;14.86;100.00
36190;BME280;22232;50.914;13.858;2023-09-30T06:26:24;98641.22;;;14.85;100.00
36190;BME280;22232;50.914;13.858;2023-09-30T06:28:56;98640.91;;;14.70;100.00
36190;BME280;22232;50.914;13.858;2023-09-30T06:31:24;98644.53;;;14.64;100.00
36190;BME280;22232;50.914;13.858;2023-09-30T06:33:52;98652.22;;;14.49;100.00
36190;BME280;22232;50.914;13.858;2023-09-30T06:36:20;98664.38;;;14.39;100.00
36190;BME280;22232;50.914;13.858;2023-09-30T06:38:48;98667.97;;;14.33;100.00
36190;BME280;22232;50.914;13.858;2023-09-30T06:41:18;98678.13;;;14.31;100.00
36190;BME280;22232;50.914;13.858;2023-09-30T06:43:45;98681.31;;;14.52;100.00
36190;BME280;22232;50.914;13.858;2023-09-30T06:46:14;98685.16;;;14.67;100.00
36190;BME280;22232;50.914;13.858;2023-09-30T06:48:43;98698.19;;;14.87;100.00
36190;BME280;22232;50.914;13.858;2023-09-30T06:51:14;98695.81;;;15.03;100.00
36190;BME280;22232;50.914;13.858;2023-09-30T06:53:45;98693.72;;;15.05;100.00
36190;BME280;22232;50.914;13.858;2023-09-30T06:56:13;98700.00;;;15.10;100.00
36190;BME280;22232;50.914;13.858;2023-09-30T06:58:42;98707.09;;;15.28;100.00
36190;BME280;22232;50.914;13.858;2023-09-30T07:01:15;98707.22;;;15.22;100.00
36190;BME280;22232;50.914;13.858;2023-09-30T07:03:43;98699.44;;;14.97;100.00
36190;BME280;22232;50.914;13.858;2023-09-30T07:06:11;98707.84;;;15.00;100.00
36190;BME280;22232;50.914;13.858;2023-09-30T07:08:38;98697.25;;;14.94;100.00
36190;BME280;22232;50.914;13.858;2023-09-30T07:11:06;98709.50;;;14.89;100.00
36190;BME280;22232;50.914;13.858;2023-09-30T07:13:35;98704.59;;;14.98;100.00
36190;BME280;22232;50.914;13.858;2023-09-30T07:16:03;98704.31;;;15.11;100.00
36190;BME280;22232;50.914;13.858;2023-09-30T07:18:31;98718.03;;;15.67;100.00
36190;BME280;22232;50.914;13.858;2023-09-30T07:20:58;98716.16;;;16.30;100.00
36190;BME280;22232;50.914;13.858;2023-09-30T07:23:30;98720.78;;;17.07;100.00
36190;BME280;22232;50.914;13.858;2023-09-30T07:25:57;98718.19;;;17.39;100.00
36190;BME280;22232;50.914;13.858;2023-09-30T07:28:25;98720.25;;;18.08;100.00
36190;BME280;22232;50.914;13.858;2023-09-30T07:30:52;98724.22;;;18.01;100.00
36190;BME280;22232;50.914;13.858;2023-09-30T07:33:21;98728.81;;;18.00;100.00
36190;BME280;22232;50.914;13.858;2023-09-30T07:35:49;98727.31;;;17.60;100.00
36190;BME280;22232;50.914;13.858;2023-09-30T07:38:17;98726.97;;;17.30;100.00
36190;BME280;22232;50.914;13.858;2023-09-30T07:40:45;98734.50;;;17.06;100.00
36190;BME280;22232;50.914;13.858;2023-09-30T07:43:13;98723.50;;;17.07;100.00
36190;BME280;22232;50.914;13.858;2023-09-30T07:45:40;98717.25;;;16.85;100.00
36190;BME280;22232;50.914;13.858;2023-09-30T07:48:08;98719.56;;;16.59;100.00
36190;BME280;22232;50.914;13.858;2023-09-30T07:50:37;98717.69;;;16.43;100.00
36190;BME280;22232;50.914;13.858;2023-09-30T07:53:05;98706.59;;;16.56;100.00
36190;BME280;22232;50.914;13.858;2023-09-30T07:55:33;98715.25;;;16.97;100.00
36190;BME280;22232;50.914;13.858;2023-09-30T07:58:01;98733.75;;;17.32;100.00
36190;BME280;22232;50.914;13.858;2023-09-30T08:00:28;98739.06;;;17.49;99.49
36190;BME280;22232;50.914;13.858;2023-09-30T08:02:57;98732.66;;;17.55;93.49
36190;BME280;22232;50.914;13.858;2023-09-30T08:05:28;98728.09;;;17.12;90.06
36190;BME280;22232;50.914;13.858;2023-09-30T08:07:55;98716.59;;;16.61;94.39
36190;BME280;22232;50.914;13.858;2023-09-30T08:10:23;98726.09;;;16.80;97.12
36190;BME280;22232;50.914;13.858;2023-09-30T08:12:50;98740.44;;;16.52;99.83
36190;BME280;22232;50.914;13.858;2023-09-30T08:15:19;98738.81;;;16.68;100.00
36190;BME280;22232;50.914;13.858;2023-09-30T08:17:46;98734.59;;;16.38;96.91
36190;BME280;22232;50.914;13.858;2023-09-30T08:20:14;98735.19;;;16.40;95.07
36190;BME280;22232;50.914;13.858;2023-09-30T08:22:42;98736.47;;;16.21;99.09
36190;BME280;22232;50.914;13.858;2023-09-30T08:25:09;98731.47;;;16.63;100.00
36190;BME280;22232;50.914;13.858;2023-09-30T08:27:38;98737.69;;;17.03;98.67
36190;BME280;22232;50.914;13.858;2023-09-30T08:30:09;98742.47;;;17.17;96.07
36190;BME280;22232;50.914;13.858;2023-09-30T08:32:37;98746.88;;;17.24;92.81
36190;BME280;22232;50.914;13.858;2023-09-30T08:35:06;98752.56;;;17.27;90.22
36190;BME280;22232;50.914;13.858;2023-09-30T08:37:34;98739.69;;;17.56;89.67
36190;BME280;22232;50.914;13.858;2023-09-30T08:40:03;98738.97;;;17.88;86.33
36190;BME280;22232;50.914;13.858;2023-09-30T08:42:32;98741.81;;;18.03;84.68
36190;BME280;22232;50.914;13.858;2023-09-30T08:45:04;98746.31;;;17.71;81.09
36190;BME280;22232;50.914;13.858;2023-09-30T08:47:34;98745.78;;;17.47;81.99
36190;BME280;22232;50.914;13.858;2023-09-30T08:50:06;98735.31;;;18.04;86.01
36190;BME280;22232;50.914;13.858;2023-09-30T08:52:44;98746.75;;;17.84;83.78
36190;BME280;22232;50.914;13.858;2023-09-30T08:55:12;98746.41;;;17.54;87.66
36190;BME280;22232;50.914;13.858;2023-09-30T08:57:41;98746.06;;;17.23;89.33
36190;BME280;22232;50.914;13.858;2023-09-30T09:00:11;98749.22;;;16.98;90.89
36190;BME280;22232;50.914;13.858;2023-09-30T09:02:41;98750.94;;;16.70;91.76
36190;BME280;22232;50.914;13.858;2023-09-30T09:05:09;98756.59;;;16.69;94.11
36190;BME280;22232;50.914;13.858;2023-09-30T09:07:37;98754.25;;;16.39;95.76
36190;BME280;22232;50.914;13.858;2023-09-30T09:10:09;98764.53;;;16.42;95.09
36190;BME280;22232;50.914;13.858;2023-09-30T09:12:38;98769.00;;;16.70;92.00
36190;BME280;22232;50.914;13.858;2023-09-30T09:15:08;98762.66;;;17.37;87.63
36190;BME280;22232;50.914;13.858;2023-09-30T09:17:43;98764.50;;;18.07;86.24
36190;BME280;22232;50.914;13.858;2023-09-30T09:20:26;98766.50;;;18.49;82.18
36190;BME280;22232;50.914;13.858;2023-09-30T09:22:55;98770.91;;;18.61;81.92
36190;BME280;22232;50.914;13.858;2023-09-30T09:25:24;98771.88;;;18.44;81.11
36190;BME280;22232;50.914;13.858;2023-09-30T09:27:52;98773.25;;;18.20;80.35
36190;BME280;22232;50.914;13.858;2023-09-30T09:30:23;98771.09;;;17.67;78.53
36190;BME280;22232;50.914;13.858;2023-09-30T09:32:53;98773.94;;;17.78;82.97
36190;BME280;22232;50.914;13.858;2023-09-30T09:35:22;98779.91;;;18.07;82.91
36190;BME280;22232;50.914;13.858;2023-09-30T09:38:14;98777.63;;;18.26;81.09
36190;BME280;22232;50.914;13.858;2023-09-30T09:40:42;98776.97;;;18.08;77.65
36190;BME280;22232;50.914;13.858;2023-09-30T09:43:10;98776.22;;;18.18;79.30
36190;BME280;22232;50.914;13.858;2023-09-30T09:45:38;98767.63;;;18.58;76.65
36190;BME280;22232;50.914;13.858;2023-09-30T09:48:06;98766.59;;;18.60;80.22
36190;BME280;22232;50.914;13.858;2023-09-30T09:50:35;98769.72;;;18.84;72.48
36190;BME280;22232;50.914;13.858;2023-09-30T09:53:07;98781.94;;;18.59;68.56
36190;BME280;22232;50.914;13.858;2023-09-30T09:55:36;98785.06;;;17.59;69.12
36190;BME280;22232;50.914;13.858;2023-09-30T09:58:06;98778.13;;;17.47;69.86
36190;BME280;22232;50.914;13.858;2023-09-30T10:00:35;98776.31;;;18.01;73.29
36190;BME280;22232;50.914;13.858;2023-09-30T10:03:04;98774.13;;;18.57;72.20
36190;BME280;22232;50.914;13.858;2023-09-30T10:05:32;98765.16;;;19.42;70.07
36190;BME280;22232;50.914;13.858;2023-09-30T10:08:13;98767.56;;;19.33;68.67
36190;BME280;22232;50.914;13.858;2023-09-30T10:10:42;98770.31;;;18.91;70.25
36190;BME280;22232;50.914;13.858;2023-09-30T10:19:20;98774.97;;;18.31;69.71
36190;BME280;22232;50.914;13.858;2023-09-30T10:24:44;98773.22;;;18.79;70.27
36190;BME280;22232;50.914;13.858;2023-09-30T10:27:30;98778.00;;;18.07;69.11
36190;BME280;22232;50.914;13.858;2023-09-30T10:37:48;98781.28;;;17.16;77.21
36190;BME280;22232;50.914;13.858;2023-09-30T10:40:29;98781.41;;;17.49;80.74
36190;BME280;22232;50.914;13.858;2023-09-30T10:42:58;98783.00;;;17.94;78.50
36190;BME280;22232;50.914;13.858;2023-09-30T10:50:57;98794.91;;;17.10;72.21
36190;BME280;22232;50.914;13.858;2023-09-30T10:53:28;98802.06;;;16.99;74.57
36190;BME280;22232;50.914;13.858;2023-09-30T10:56:00;98789.06;;;17.35;74.90
36190;BME280;22232;50.914;13.858;2023-09-30T10:58:53;98790.69;;;17.80;74.17
36190;BME280;22232;50.914;13.858;2023-09-30T11:01:22;98787.47;;;18.05;72.04
36190;BME280;22232;50.914;13.858;2023-09-30T11:03:58;98784.63;;;17.95;69.24
36190;BME280;22232;50.914;13.858;2023-09-30T11:06:26;98789.94;;;18.11;69.57
36190;BME280;22232;50.914;13.858;2023-09-30T11:08:58;98795.84;;;17.81;67.39
36190;BME280;22232;50.914;13.858;2023-09-30T11:11:38;98791.47;;;18.29;66.29
36190;BME280;22232;50.914;13.858;2023-09-30T11:14:25;98785.06;;;18.41;67.81
36190;BME280;22232;50.914;13.858;2023-09-30T11:16:58;98785.50;;;18.60;67.54
36190;BME280;22232;50.914;13.858;2023-09-30T11:19:34;98786.25;;;18.87;66.72
36190;BME280;22232;50.914;13.858;2023-09-30T11:22:03;98796.47;;;18.80;64.39
36190;BME280;22232;50.914;13.858;2023-09-30T11:24:30;98786.31;;;18.97;65.61
36190;BME280;22232;50.914;13.858;2023-09-30T11:27:02;98782.00;;;18.64;64.18
36190;BME280;22232;50.914;13.858;2023-09-30T11:29:30;98774.00;;;18.42;64.79
36190;BME280;22232;50.914;13.858;2023-09-30T11:31:58;98778.53;;;18.04;67.59
36190;BME280;22232;50.914;13.858;2023-09-30T11:34:36;98772.53;;;17.97;67.70
36190;BME280;22232;50.914;13.858;2023-09-30T11:37:05;98776.00;;;17.93;68.96
36190;BME280;22232;50.914;13.858;2023-09-30T11:39:37;98776.69;;;18.10;70.45
36190;BME280;22232;50.914;13.858;2023-09-30T11:42:15;98782.56;;;18.34;69.93
36190;BME280;22232;50.914;13.858;2023-09-30T11:44:45;98774.69;;;18.65;65.56
36190;BME280;22232;50.914;13.858;2023-09-30T11:47:14;98767.91;;;18.94;64.81
36190;BME280;22232;50.914;13.858;2023-09-30T11:49:43;98775.09;;;18.41;69.24
36190;BME280;22232;50.914;13.858;2023-09-30T11:52:15;98773.22;;;18.15;69.80
36190;BME280;22232;50.914;13.858;2023-09-30T11:54:44;98769.81;;;17.48;71.66
36190;BME280;22232;50.914;13.858;2023-09-30T11:57:14;98765.81;;;17.29;73.73
36190;BME280;22232;50.914;13.858;2023-09-30T11:59:46;98766.72;;;17.39;73.99
36190;BME280;22232;50.914;13.858;2023-09-30T12:02:15;98769.91;;;17.58;71.77
36190;BME280;22232;50.914;13.858;2023-09-30T12:04:45;98764.59;;;17.41;70.68
36190;BME280;22232;50.914;13.858;2023-09-30T12:07:15;98757.06;;;17.65;72.57
36190;BME280;22232;50.914;13.858;2023-09-30T12:09:43;98757.19;;;17.54;66.25
36190;BME280;22232;50.914;13.858;2023-09-30T12:12:10;98751.53;;;17.55;68.29
36190;BME280;22232;50.914;13.858;2023-09-30T12:14:39;98750.19;;;18.02;65.92
36190;BME280;22232;50.914;13.858;2023-09-30T12:17:07;98762.94;;;18.11;61.58
36190;BME280;22232;50.914;13.858;2023-09-30T12:19:40;98754.59;;;18.45;61.59
36190;BME280;22232;50.914;13.858;2023-09-30T12:22:10;98754.41;;;18.62;59.49
36190;BME280;22232;50.914;13.858;2023-09-30T12:24:38;98757.44;;;18.71;60.56
36190;BME280;22232;50.914;13.858;2023-09-30T12:27:07;98755.56;;;18.71;59.07
36190;BME280;22232;50.914;13.858;2023-09-30T12:29:35;98751.06;;;18.82;58.43
36190;BME280;22232;50.914;13.858;2023-09-30T12:32:06;98747.81;;;18.80;57.55
36190;BME280;22232;50.914;13.858;2023-09-30T12:34:34;98746.56;;;18.98;57.13
36190;BME280;22232;50.914;13.858;2023-09-30T12:37:03;98754.13;;;18.58;57.68
36190;BME280;22232;50.914;13.858;2023-09-30T12:39:31;98751.06;;;18.82;58.34
36190;BME280;22232;50.914;13.858;2023-09-30T12:42:01;98740.94;;;19.10;59.45
36190;BME280;22232;50.914;13.858;2023-09-30T12:44:29;98733.13;;;19.13;57.66
36190;BME280;22232;50.914;13.858;2023-09-30T12:46:56;98743.22;;;19.38;58.70
36190;BME280;22232;50.914;13.858;2023-09-30T12:49:24;98741.38;;;19.49;57.51
36190;BME280;22232;50.914;13.858;2023-09-30T12:51:52;98734.84;;;19.30;56.65
36190;BME280;22232;50.914;13.858;2023-09-30T12:54:19;98734.03;;;19.44;58.16
36190;BME280;22232;50.914;13.858;2023-09-30T12:56:47;98729.75;;;19.54;56.98
36190;BME280;22232;50.914;13.858;2023-09-30T12:59:15;98723.75;;;19.36;56.46
36190;BME280;22232;50.914;13.858;2023-09-30T13:01:44;98724.81;;;19.35;56.51
36190;BME280;22232;50.914;13.858;2023-09-30T13:04:12;98721.09;;;19.57;59.04
36190;BME280;22232;50.914;13.858;2023-09-30T13:06:40;98719.03;;;19.06;58.29
36190;BME280;22232;50.914;13.858;2023-09-30T13:09:08;98727.00;;;18.80;58.90
36190;BME280;22232;50.914;13.858;2023-09-30T13:11:36;98719.75;;;18.86;59.07
36190;BME280;22232;50.914;13.858;2023-09-30T13:14:04;98714.69;;;19.00;57.92
36190;BME280;22232;50.914;13.858;2023-09-30T13:16:32;98715.25;;;18.60;59.01
36190;BME280;22232;50.914;13.858;2023-09-30T13:19:00;98713.22;;;18.40;59.65